Time;durP1;ratioP1;P1;durP2;ratioP2;P2;SDS_P1;SDS_P2;PMS_P1;PMS_P2;Temp;Humidity;BMP_temperature;BMP_pressure;BME280_temperature;BME280_humidity;BME280_pressure;Samples;Min_cycle;Max_cycle;Signal;HPM_P1;HPM_P2
2021/12/13 00:01:50;;;;;;;1.88;1.75;;;19.30;65.40;;;;;;4989265;28;20026;-67
2021/12/13 00:04:20;;;;;;;2.08;1.88;;;19.20;65.40;;;;;;5006851;28;20500;-67
2021/12/13 00:06:52;;;;;;;1.90;1.80;;;19.20;65.40;;;;;;4993528;28;20057;-67
2021/12/13 00:09:20;;;;;;;1.83;1.73;;;19.20;65.40;;;;;;5010014;28;20050;-67
2021/12/13 00:11:47;;;;;;;2.17;1.80;;;19.20;65.40;;;;;;5009444;28;20030;-67
2021/12/13 00:14:16;;;;;;;2.30;2.10;;;19.20;65.40;;;;;;4993467;28;20121;-67
2021/12/13 00:16:45;;;;;;;2.03;1.90;;;19.20;65.50;;;;;;4993548;28;20034;-67
2021/12/13 00:19:18;;;;;;;1.80;1.70;;;19.20;65.50;;;;;;4993512;28;20030;-67
2021/12/13 00:21:47;;;;;;;2.05;1.65;;;19.20;65.50;;;;;;4992948;28;20026;-67
2021/12/13 00:24:34;;;;;;;2.05;1.60;;;19.20;65.50;;;;;;5024573;28;20042;-67
2021/12/13 00:27:19;;;;;;;1.90;1.80;;;19.20;65.50;;;;;;5015076;28;20411;-67
2021/12/13 00:29:59;;;;;;;1.90;1.70;;;19.20;65.50;;;;;;5014117;28;20038;-67
2021/12/13 00:33:03;;;;;;;5.22;1.73;;;19.20;65.50;;;;;;5014770;28;20030;-67
2021/12/13 00:35:45;;;;;;;3.33;1.80;;;19.20;65.60;;;;;;5014978;28;20018;-67
2021/12/13 00:38:11;;;;;;;2.03;1.50;;;19.10;65.50;;;;;;5014092;28;20029;-67
2021/12/13 00:40:46;;;;;;;1.58;1.40;;;19.20;65.70;;;;;;5014436;28;20560;-67
2021/12/13 00:43:21;;;;;;;1.75;1.65;;;19.20;65.60;;;;;;4997689;28;20022;-67
2021/12/13 00:46:04;;;;;;;1.73;1.50;;;19.10;65.50;;;;;;5013747;28;20492;-67
2021/12/13 00:48:30;;;;;;;2.88;1.60;;;19.20;65.60;;;;;;4998435;28;20508;-67
2021/12/13 00:51:02;;;;;;;4.78;2.00;;;19.10;65.60;;;;;;5013571;28;20117;-67
2021/12/13 00:53:29;;;;;;;1.63;1.52;;;19.10;65.60;;;;;;5014147;28;20091;-67
2021/12/13 00:55:55;;;;;;;1.50;1.40;;;19.10;65.60;;;;;;4997540;28;20061;-67
2021/12/13 00:58:22;;;;;;;1.83;1.63;;;19.10;65.60;;;;;;5013466;28;20054;-67
2021/12/13 01:00:58;;;;;;;2.15;1.85;;;19.10;65.60;;;;;;4998138;28;20026;-67
2021/12/13 01:03:46;;;;;;;2.50;1.70;;;19.10;65.60;;;;;;4993749;28;20023;-67
2021/12/13 01:06:49;;;;;;;2.95;1.67;;;19.10;65.60;;;;;;4993619;28;20073;-67
2021/12/13 01:09:33;;;;;;;;;;;19.10;65.60;;;;;;4995083;28;20018;-67
2021/12/13 01:12:01;;;;;;;2.17;1.95;;;19.00;65.70;;;;;;4994977;28;19913;-67
2021/12/13 01:14:34;;;;;;;1.30;1.20;;;19.00;65.80;;;;;;4977259;28;20026;-67
2021/12/13 01:17:13;;;;;;;1.60;1.50;;;19.00;65.80;;;;;;4994237;28;20018;-67
2021/12/13 01:19:54;;;;;;;1.88;1.48;;;19.00;65.70;;;;;;4993389;28;20026;-67
2021/12/13 01:28:31;;;;;;;1.73;1.50;;;19.00;65.70;;;;;;4987906;28;20034;-67
2021/12/13 01:31:01;;;;;;;1.80;1.40;;;19.00;65.70;;;;;;4991510;28;20113;-67
2021/12/13 01:33:27;;;;;;;1.50;1.40;;;19.00;65.80;;;;;;4994175;28;20074;-67
2021/12/13 01:35:54;;;;;;;1.73;1.55;;;19.00;65.80;;;;;;4993150;28;20354;-67
2021/12/13 01:38:31;;;;;;;1.65;1.55;;;19.00;65.80;;;;;;4976483;28;20081;-67
2021/12/13 01:40:57;;;;;;;1.40;1.30;;;19.00;65.80;;;;;;4993266;28;20025;-67
2021/12/13 01:43:26;;;;;;;1.48;1.35;;;19.00;65.80;;;;;;4993069;28;20022;-67
2021/12/13 01:45:52;;;;;;;2.33;1.33;;;19.00;65.70;;;;;;4993064;28;20042;-67
2021/12/13 01:48:36;;;;;;;2.78;1.55;;;18.90;65.70;;;;;;4992860;28;20022;-67
2021/12/13 01:51:07;;;;;;;1.40;1.30;;;19.00;65.70;;;;;;4992785;28;20033;-67
2021/12/13 01:53:45;;;;;;;1.58;1.40;;;18.90;65.70;;;;;;4993856;28;20027;-67
2021/12/13 01:59:05;;;;;;;1.30;1.17;;;19.00;65.80;;;;;;4985042;28;20030;-67
2021/12/13 02:01:30;;;;;;;1.98;1.42;;;18.90;65.80;;;;;;5013590;28;20030;-67
2021/12/13 02:04:05;;;;;;;1.77;1.45;;;18.90;65.70;;;;;;5012132;28;20033;-67
2021/12/13 02:06:36;;;;;;;1.65;1.23;;;18.90;65.70;;;;;;5013058;28;20077;-67
2021/12/13 02:09:26;;;;;;;1.40;1.30;;;18.90;65.70;;;;;;4996334;28;20400;-67
2021/12/13 02:11:54;;;;;;;1.40;1.30;;;18.90;65.70;;;;;;5011998;28;20022;-67
2021/12/13 02:14:24;;;;;;;1.73;1.30;;;18.90;65.80;;;;;;5013319;28;20026;-67
2021/12/13 02:17:01;;;;;;;1.67;1.20;;;18.90;65.70;;;;;;5012974;28;20018;-67
2021/12/13 02:19:33;;;;;;;1.48;1.20;;;18.90;65.70;;;;;;5012122;28;20057;-67
2021/12/13 02:22:17;;;;;;;1.10;1.10;;;18.90;65.70;;;;;;5012725;28;20022;-67
2021/12/13 02:24:43;;;;;;;2.25;1.13;;;18.90;65.70;;;;;;5012986;28;20034;-67
2021/12/13 02:27:08;;;;;;;1.23;1.13;;;18.90;65.80;;;;;;5011809;28;20100;-67
2021/12/13 02:29:37;;;;;;;1.65;1.20;;;18.90;65.70;;;;;;4995353;28;20046;-67
2021/12/13 02:32:08;;;;;;;1.63;1.00;;;18.90;65.70;;;;;;5004122;28;20080;-67
2021/12/13 02:34:36;;;;;;;1.30;1.20;;;18.90;65.70;;;;;;4992860;28;20030;-67
2021/12/13 02:37:03;;;;;;;1.30;1.20;;;18.80;65.70;;;;;;4992044;28;20740;-67
2021/12/13 02:39:33;;;;;;;1.38;1.27;;;18.80;65.70;;;;;;4976102;28;20105;-67
2021/12/13 02:42:00;;;;;;;1.20;1.20;;;18.90;65.80;;;;;;4993191;28;20027;-67
2021/12/13 02:44:29;;;;;;;1.20;1.10;;;18.80;65.70;;;;;;4992003;28;20037;-67
2021/12/13 02:46:57;;;;;;;1.27;1.15;;;18.90;65.80;;;;;;4992875;28;20018;-67
2021/12/13 02:49:23;;;;;;;1.10;1.10;;;18.80;65.70;;;;;;4991842;28;20030;-67
2021/12/13 02:51:56;;;;;;;2.20;1.20;;;18.80;65.70;;;;;;4991787;28;20493;-67
2021/12/13 02:54:24;;;;;;;1.27;1.10;;;18.80;65.70;;;;;;4991701;28;20019;-67
2021/12/13 02:56:54;;;;;;;1.35;1.25;;;18.80;65.70;;;;;;4975809;28;20049;-67
2021/12/13 02:59:21;;;;;;;1.25;1.15;;;18.80;65.70;;;;;;4997345;28;20097;-67
2021/12/13 03:01:53;;;;;;;1.08;0.98;;;18.80;65.70;;;;;;5012539;28;20049;-67
2021/12/13 03:04:20;;;;;;;1.25;1.10;;;18.80;65.70;;;;;;5010980;28;20053;-67
2021/12/13 03:07:02;;;;;;;1.27;1.17;;;18.80;65.70;;;;;;5012531;28;20451;-67
2021/12/13 03:09:29;;;;;;;0.80;0.80;;;18.80;65.70;;;;;;5011300;28;20032;-67
2021/12/13 03:11:55;;;;;;;1.27;1.17;;;18.80;65.80;;;;;;5012388;28;20120;-67
2021/12/13 03:14:31;;;;;;;1.02;1.02;;;18.80;65.70;;;;;;5011298;28;20102;-67
2021/12/13 03:17:20;;;;;;;2.15;1.10;;;18.80;65.70;;;;;;5011188;28;20026;-67
2021/12/13 03:20:23;;;;;;;1.17;1.05;;;18.80;65.70;;;;;;5010732;28;20025;-67
2021/12/13 03:23:34;;;;;;;0.98;0.93;;;18.80;65.70;;;;;;5012506;28;20105;-67
2021/12/13 03:26:33;;;;;;;1.52;1.10;;;18.80;65.70;;;;;;5005198;28;20030;-67
2021/12/13 03:29:05;;;;;;;0.90;0.90;;;18.80;65.90;;;;;;5012213;28;20033;-67
2021/12/13 03:31:39;;;;;;;1.27;1.17;;;18.70;65.80;;;;;;5011010;28;20029;-67
2021/12/13 03:34:08;;;;;;;1.05;0.95;;;18.70;65.80;;;;;;5012026;28;20079;-67
2021/12/13 03:36:42;;;;;;;1.25;1.08;;;18.70;65.80;;;;;;5011145;28;20052;-67
2021/12/13 03:39:09;;;;;;;1.35;1.00;;;18.80;65.90;;;;;;5014017;28;20037;-67
2021/12/13 03:41:37;;;;;;;1.15;1.00;;;18.70;65.80;;;;;;5014693;28;20053;-67
2021/12/13 03:44:09;;;;;;;1.48;0.95;;;18.80;65.90;;;;;;5016115;28;20058;-67
2021/12/13 03:46:35;;;;;;;1.25;1.20;;;18.80;65.80;;;;;;5015018;28;20064;-67
2021/12/13 03:49:01;;;;;;;1.10;1.00;;;18.70;65.80;;;;;;5015532;28;20423;-67
2021/12/13 03:51:29;;;;;;;1.35;0.98;;;18.80;65.90;;;;;;5014697;28;20021;-67
2021/12/13 03:53:56;;;;;;;1.05;0.95;;;18.70;65.80;;;;;;4998115;28;20025;-67
2021/12/13 03:56:26;;;;;;;0.85;0.85;;;18.70;65.80;;;;;;4998469;28;20018;-67
2021/12/13 03:58:56;;;;;;;0.95;0.77;;;18.70;65.80;;;;;;5015152;28;20022;-67
2021/12/13 04:01:43;;;;;;;1.55;1.08;;;18.70;65.80;;;;;;4995044;28;20025;-67
2021/12/13 04:04:19;;;;;;;1.02;1.00;;;18.80;65.90;;;;;;4995449;28;20043;-67
2021/12/13 04:06:52;;;;;;;1.05;0.90;;;18.70;65.80;;;;;;4979992;28;20105;-67
2021/12/13 04:09:18;;;;;;;1.10;1.10;;;18.70;65.80;;;;;;4963241;28;20066;-67
2021/12/13 04:11:44;;;;;;;0.98;0.85;;;18.70;65.90;;;;;;4994693;28;20054;-67
2021/12/13 04:14:16;;;;;;;0.80;0.80;;;18.70;66.50;;;;;;4995946;28;20026;-67
2021/12/13 04:17:02;;;;;;;0.80;0.80;;;18.70;65.80;;;;;;4978929;28;20049;-67
2021/12/13 04:19:27;;;;;;;0.70;0.70;;;18.70;65.80;;;;;;4981251;28;20026;-67
2021/12/13 04:21:57;;;;;;;0.80;0.80;;;18.70;65.90;;;;;;4978350;28;20511;-67
2021/12/13 04:24:52;;;;;;;0.77;0.77;;;18.70;65.80;;;;;;4994759;28;20022;-67
2021/12/13 04:27:19;;;;;;;0.88;0.88;;;18.80;65.90;;;;;;4993591;28;20061;-67
2021/12/13 04:29:45;;;;;;;0.90;0.90;;;18.70;65.90;;;;;;4994354;28;20034;-67
2021/12/13 04:32:20;;;;;;;0.73;0.73;;;18.70;65.90;;;;;;5004842;28;20026;-67
2021/12/13 04:34:46;;;;;;;0.80;0.80;;;18.70;65.80;;;;;;5014070;28;20117;-67
2021/12/13 04:37:14;;;;;;;0.80;0.80;;;18.70;65.90;;;;;;4997380;28;20113;-67
2021/12/13 04:39:41;;;;;;;0.73;0.73;;;18.70;65.90;;;;;;5015073;28;20022;-67
2021/12/13 04:42:10;;;;;;;0.80;0.80;;;18.70;65.90;;;;;;5014980;28;20022;-67
2021/12/13 04:45:09;;;;;;;2.53;0.65;;;18.70;65.90;;;;;;4997488;28;20373;-67
2021/12/13 04:47:38;;;;;;;0.80;0.80;;;18.70;65.80;;;;;;4983620;28;20030;-67
2021/12/13 04:50:06;;;;;;;0.85;0.70;;;18.70;65.90;;;;;;5012339;28;20069;-67
2021/12/13 04:52:32;;;;;;;1.10;1.00;;;18.70;65.90;;;;;;5013437;28;20026;-67
2021/12/13 04:54:58;;;;;;;0.70;0.70;;;18.70;66.00;;;;;;5013389;28;20029;-67
2021/12/13 04:57:24;;;;;;;0.80;0.80;;;18.70;65.90;;;;;;5013586;28;20020;-67
2021/12/13 04:59:55;;;;;;;0.70;0.70;;;18.70;66.00;;;;;;5014222;28;20093;-67
2021/12/13 05:02:21;;;;;;;0.60;0.60;;;18.70;65.90;;;;;;5014684;28;20025;-67
2021/12/13 05:04:50;;;;;;;0.80;0.80;;;18.70;65.90;;;;;;5014187;28;20096;-67
2021/12/13 05:07:16;;;;;;;0.73;0.70;;;18.70;66.00;;;;;;5013351;28;20394;-67
2021/12/13 05:09:41;;;;;;;0.75;0.75;;;18.70;65.90;;;;;;4996841;28;20038;-67
2021/12/13 05:12:15;;;;;;;0.77;0.77;;;18.70;65.90;;;;;;5013106;28;20061;-67
2021/12/13 05:14:47;;;;;;;0.70;0.70;;;18.70;65.90;;;;;;5012878;28;20388;-67
2021/12/13 05:17:14;;;;;;;0.82;0.82;;;18.70;65.90;;;;;;5014201;28;20051;-67
2021/12/13 05:19:45;;;;;;;0.77;0.77;;;18.70;66.00;;;;;;5013103;28;20084;-67
2021/12/13 05:22:12;;;;;;;0.70;0.70;;;18.70;65.90;;;;;;5014157;28;20026;-67
2021/12/13 05:24:59;;;;;;;1.38;0.70;;;18.70;66.00;;;;;;5013089;28;20045;-67
2021/12/13 05:27:31;;;;;;;0.70;0.70;;;18.70;65.90;;;;;;5014297;28;20030;-67
2021/12/13 05:30:09;;;;;;;0.68;0.68;;;18.70;66.00;;;;;;5013762;28;20030;-67
2021/12/13 05:32:37;;;;;;;0.70;0.70;;;18.70;66.00;;;;;;4996193;28;20037;-67
2021/12/13 05:35:25;;;;;;;0.60;0.60;;;18.60;66.00;;;;;;4996393;28;20028;-67
2021/12/13 05:37:53;;;;;;;1.48;0.65;;;18.70;66.10;;;;;;4998847;28;20057;-67
2021/12/13 05:40:31;;;;;;;1.73;0.90;;;18.70;66.10;;;;;;5012603;28;20392;-67
2021/12/13 05:42:59;;;;;;;0.70;0.70;;;18.70;66.10;;;;;;5012225;28;20026;-67
2021/12/13 05:45:34;;;;;;;0.68;0.68;;;18.70;66.10;;;;;;4996575;28;20104;-67
2021/12/13 05:48:24;;;;;;;2.05;0.80;;;18.70;66.10;;;;;;4996685;28;20426;-67
2021/12/13 05:50:54;;;;;;;1.15;0.80;;;18.70;66.00;;;;;;5000690;28;20044;-67
2021/12/13 05:53:31;;;;;;;0.60;0.60;;;18.70;66.10;;;;;;5013578;28;20021;-67
2021/12/13 05:56:10;;;;;;;0.60;0.60;;;18.70;66.10;;;;;;5013702;28;20022;-67
2021/12/13 05:58:42;;;;;;;0.85;0.65;;;18.70;66.10;;;;;;5013254;28;20022;-67
2021/12/13 06:01:12;;;;;;;0.70;0.70;;;18.70;66.10;;;;;;4993899;28;20081;-67
2021/12/13 06:03:40;;;;;;;0.60;0.60;;;18.60;66.00;;;;;;4992642;28;20030;-67
2021/12/13 06:06:12;;;;;;;1.95;0.63;;;18.60;66.10;;;;;;4993640;28;20088;-67
2021/12/13 06:08:48;;;;;;;0.83;0.70;;;18.70;66.10;;;;;;4977220;28;20366;-67
2021/12/13 06:11:32;;;;;;;1.67;0.80;;;18.60;66.10;;;;;;4976671;28;20026;-67
2021/12/13 06:13:59;;;;;;;0.68;0.68;;;18.70;66.10;;;;;;4977533;28;20105;-67
2021/12/13 06:16:48;;;;;;;0.68;0.68;;;18.60;66.10;;;;;;4993706;28;20026;-67
2021/12/13 06:19:26;;;;;;;0.65;0.60;;;18.70;66.10;;;;;;4992373;28;20026;-67
2021/12/13 06:22:25;;;;;;;1.75;0.60;;;18.70;66.10;;;;;;4992402;28;20026;-67
2021/12/13 06:24:50;;;;;;;0.70;0.60;;;18.70;66.10;;;;;;4925897;29;20039;-67
2021/12/13 06:27:19;;;;;;;0.70;0.60;;;18.60;66.20;;;;;;4941021;29;20038;-67
2021/12/13 06:29:56;;;;;;;0.70;0.50;;;18.60;66.20;;;;;;4942284;29;20034;-67
2021/12/13 06:32:33;;;;;;;0.70;0.70;;;18.60;66.10;;;;;;4945600;29;20035;-67
2021/12/13 06:34:59;;;;;;;1.00;0.70;;;18.60;66.20;;;;;;4943564;29;20401;-67
2021/12/13 06:37:34;;;;;;;1.17;0.80;;;18.60;66.20;;;;;;4943219;29;20035;-67
2021/12/13 06:40:27;;;;;;;0.70;0.70;;;18.70;66.20;;;;;;4932170;29;20079;-67
2021/12/13 06:42:57;;;;;;;0.75;0.50;;;18.70;66.20;;;;;;4945766;29;20034;-67
2021/12/13 06:45:34;;;;;;;0.50;0.50;;;18.60;66.20;;;;;;4936325;29;20038;-67
2021/12/13 06:48:02;;;;;;;0.60;0.60;;;18.60;66.20;;;;;;4937758;29;20486;-67
2021/12/13 06:50:31;;;;;;;0.50;0.50;;;18.60;66.20;;;;;;4933253;29;20043;-67
2021/12/13 06:53:18;;;;;;;0.30;0.30;;;18.60;66.20;;;;;;4933436;29;20082;-67
2021/12/13 06:55:45;;;;;;;0.30;0.30;;;18.70;66.10;;;;;;4945933;29;20135;-67
2021/12/13 06:58:23;;;;;;;0.20;0.20;;;18.60;66.10;;;;;;4927108;29;20019;-67
2021/12/13 07:00:51;;;;;;;0.20;0.20;;;18.70;66.00;;;;;;4982551;28;20551;-67
2021/12/13 07:03:26;;;;;;;0.20;0.20;;;18.60;66.00;;;;;;4986957;28;20049;-67
2021/12/13 07:05:56;;;;;;;0.30;0.30;;;18.70;66.10;;;;;;5004096;28;20064;-68
2021/12/13 07:08:32;;;;;;;0.30;0.30;;;18.70;66.00;;;;;;5002474;28;20060;-67
2021/12/13 07:10:59;;;;;;;0.20;0.20;;;18.70;66.00;;;;;;4995369;28;20398;-68
2021/12/13 07:13:28;;;;;;;0.10;0.10;;;18.70;66.00;;;;;;5012849;28;20018;-68
2021/12/13 07:16:06;;;;;;;1.00;0.10;;;18.70;66.00;;;;;;5008569;28;20018;-68
2021/12/13 07:19:11;;;;;;;0.20;0.10;;;18.70;65.80;;;;;;5009155;28;20494;-68
2021/12/13 07:22:09;;;;;;;0.52;0.30;;;18.70;65.70;;;;;;4996240;28;20137;-68
2021/12/13 07:24:42;;;;;;;0.10;0.10;;;18.70;65.70;;;;;;4895288;29;20060;-68
2021/12/13 07:27:10;;;;;;;1.85;0.22;;;18.70;65.80;;;;;;4919698;29;20090;-68
2021/12/13 07:29:46;;;;;;;0.32;0.20;;;18.70;65.80;;;;;;4905547;29;20032;-68
2021/12/13 07:32:16;;;;;;;0.30;0.30;;;18.70;65.70;;;;;;4936348;29;20118;-68
2021/12/13 07:35:09;;;;;;;3.08;0.30;;;18.70;65.70;;;;;;4936989;29;20032;-68
2021/12/13 07:37:38;;;;;;;4.40;0.57;;;18.80;65.60;;;;;;4936645;29;20074;-68
2021/12/13 07:40:13;;;;;;;5.18;1.13;;;18.70;65.70;;;;;;4935945;29;20039;-68
2021/12/13 07:42:38;;;;;;;5.57;1.10;;;18.80;65.70;;;;;;4919348;29;20046;-68
2021/12/13 07:45:04;;;;;;;8.95;1.55;;;18.80;65.90;;;;;;4920106;29;20103;-68
2021/12/13 07:47:31;;;;;;;8.45;1.30;;;18.80;65.80;;;;;;4904421;29;20043;-68
2021/12/13 07:49:58;;;;;;;3.58;1.10;;;18.80;65.80;;;;;;4904783;29;20394;-68
2021/12/13 07:52:31;;;;;;;3.22;1.00;;;18.80;65.80;;;;;;4920279;29;20034;-68
2021/12/13 07:54:57;;;;;;;6.38;1.67;;;18.90;66.70;;;;;;4920018;29;20019;-68
2021/12/13 07:57:29;;;;;;;5.70;1.08;;;18.90;65.70;;;;;;4936185;29;20032;-68
2021/12/13 07:59:55;;;;;;;2.65;0.90;;;18.90;65.60;;;;;;4956253;28;20030;-68
2021/12/13 08:02:27;;;;;;;4.47;0.98;;;18.90;65.60;;;;;;4985629;28;20030;-68
2021/12/13 08:04:59;;;;;;;3.28;1.45;;;18.90;65.60;;;;;;4994130;28;20043;-68
2021/12/13 08:07:26;;;;;;;1.23;0.85;;;18.90;65.60;;;;;;4994733;28;20030;-68
2021/12/13 08:09:53;;;;;;;2.08;0.85;;;18.90;65.70;;;;;;5005309;28;20061;-68
2021/12/13 08:12:27;;;;;;;3.00;0.77;;;18.90;65.70;;;;;;5014106;28;20033;-68
2021/12/13 08:14:56;;;;;;;2.85;1.05;;;18.90;65.60;;;;;;4999182;28;20025;-68
2021/12/13 08:17:25;;;;;;;4.38;0.82;;;18.90;65.60;;;;;;5012591;28;20404;-68
2021/12/13 08:20:06;;;;;;;2.17;0.70;;;18.90;65.60;;;;;;4994440;28;20025;-68
2021/12/13 08:22:32;;;;;;;1.80;0.85;;;19.00;65.50;;;;;;4978113;28;20492;-68
2021/12/13 08:25:00;;;;;;;2.38;0.88;;;18.90;65.50;;;;;;4978246;28;20034;-68
2021/12/13 08:27:32;;;;;;;2.65;0.80;;;18.90;65.50;;;;;;4994460;28;20110;-68
2021/12/13 08:30:31;;;;;;;4.07;0.90;;;18.90;65.50;;;;;;4995588;28;20445;-68
2021/12/13 08:33:13;;;;;;;4.00;1.08;;;19.00;65.40;;;;;;5010100;28;20057;-68
2021/12/13 08:36:03;;;;;;;1.47;0.57;;;19.00;65.40;;;;;;5013854;28;20085;-68
2021/12/13 08:38:39;;;;;;;3.60;0.80;;;18.90;65.30;;;;;;5014429;28;20021;-68
2021/12/13 08:41:34;;;;;;;2.50;0.68;;;18.90;65.50;;;;;;5014896;28;20484;-68
2021/12/13 08:44:12;;;;;;;2.53;0.60;;;19.00;65.50;;;;;;5013947;28;20033;-68
2021/12/13 08:46:57;;;;;;;2.50;0.70;;;18.90;65.40;;;;;;5014901;28;20032;-68
2021/12/13 08:49:37;;;;;;;1.80;0.70;;;19.00;65.50;;;;;;5013753;28;20036;-68
2021/12/13 08:52:11;;;;;;;2.40;0.77;;;19.00;65.40;;;;;;5014381;28;20485;-68
2021/12/13 08:54:46;;;;;;;1.25;0.77;;;19.00;65.50;;;;;;5014873;28;20022;-68
2021/12/13 08:57:33;;;;;;;2.47;0.88;;;19.00;65.40;;;;;;5014613;28;20037;-68
2021/12/13 08:59:59;;;;;;;1.65;0.80;;;18.90;65.30;;;;;;5013775;28;20061;-68
2021/12/13 09:02:30;;;;;;;1.85;0.80;;;19.00;65.40;;;;;;5004967;28;20026;-68
2021/12/13 09:04:59;;;;;;;0.77;0.50;;;19.00;65.30;;;;;;4959267;28;20050;-68
2021/12/13 09:07:25;;;;;;;1.30;0.52;;;19.00;65.40;;;;;;4994604;28;20404;-68
2021/12/13 09:09:51;;;;;;;2.10;0.57;;;18.90;65.30;;;;;;5006721;28;20061;-68
2021/12/13 09:12:37;;;;;;;1.63;0.40;;;19.00;65.30;;;;;;4996792;28;20029;-68
2021/12/13 09:15:07;;;;;;;1.13;0.50;;;19.00;65.20;;;;;;5013233;28;20502;-68
2021/12/13 09:17:34;;;;;;;2.25;0.63;;;19.00;65.30;;;;;;5013115;28;20052;-68
2021/12/13 09:20:07;;;;;;;1.67;0.70;;;19.00;65.20;;;;;;5013288;28;20658;-68
2021/12/13 09:22:38;;;;;;;2.53;0.70;;;19.00;65.20;;;;;;5012761;28;20594;-68
2021/12/13 09:25:16;;;;;;;0.98;0.70;;;19.00;65.20;;;;;;4997075;28;20057;-68
2021/12/13 09:27:47;;;;;;;1.00;0.47;;;19.00;65.10;;;;;;5014013;28;20072;-68
2021/12/13 09:30:16;;;;;;;1.13;0.40;;;19.00;65.20;;;;;;5014269;28;20499;-68
2021/12/13 09:33:21;;;;;;;0.70;0.40;;;19.00;65.10;;;;;;5014136;28;20037;-68
2021/12/13 09:36:13;;;;;;;1.83;0.80;;;19.00;65.00;;;;;;4998307;28;20164;-68
2021/12/13 09:39:11;;;;;;;2.42;0.60;;;19.10;65.00;;;;;;5012692;28;20080;-68
2021/12/13 09:41:52;;;;;;;2.20;0.60;;;19.00;65.10;;;;;;5013869;28;20018;-69
2021/12/13 09:44:20;;;;;;;1.60;0.70;;;19.00;65.20;;;;;;5012741;28;20097;-68
2021/12/13 09:46:48;;;;;;;0.75;0.40;;;19.00;65.20;;;;;;5013878;28;20033;-68
2021/12/13 09:49:25;;;;;;;0.45;0.30;;;19.00;65.10;;;;;;5012693;28;20022;-68
2021/12/13 09:51:54;;;;;;;1.35;0.40;;;19.00;65.00;;;;;;5012538;28;20415;-68
2021/12/13 09:54:23;;;;;;;2.60;0.47;;;19.00;65.00;;;;;;5013662;28;20049;-68
2021/12/13 09:56:50;;;;;;;0.63;0.35;;;19.00;65.00;;;;;;4979965;28;20109;-68
2021/12/13 09:59:27;;;;;;;1.95;0.40;;;19.10;65.10;;;;;;5012604;28;20501;-68
2021/12/13 10:01:55;;;;;;;0.43;0.40;;;19.10;65.00;;;;;;4996065;28;20017;-68
2021/12/13 10:04:35;;;;;;;0.88;0.40;;;19.00;65.00;;;;;;5011649;28;20099;-68
2021/12/13 10:07:13;;;;;;;0.57;0.30;;;19.00;64.90;;;;;;5012335;28;20022;-68
2021/12/13 10:09:45;;;;;;;1.20;0.40;;;19.10;65.00;;;;;;5003056;28;20026;-68
2021/12/13 10:12:14;;;;;;;0.50;0.50;;;19.00;64.90;;;;;;4993690;28;20027;-68
2021/12/13 10:14:43;;;;;;;1.58;0.47;;;19.00;64.90;;;;;;4993816;28;20026;-68
2021/12/13 10:17:09;;;;;;;2.08;0.52;;;19.10;64.90;;;;;;4992416;28;20105;-68
2021/12/13 10:19:41;;;;;;;1.13;0.40;;;19.00;64.80;;;;;;4992197;28;20058;-68
2021/12/13 10:22:07;;;;;;;0.73;0.30;;;19.00;64.80;;;;;;4993631;28;20026;-68
2021/12/13 10:24:42;;;;;;;0.40;0.40;;;19.00;64.80;;;;;;4993444;28;20027;-68
2021/12/13 10:27:09;;;;;;;2.58;0.30;;;19.00;64.70;;;;;;4976141;28;20045;-68
2021/12/13 10:29:35;;;;;;;1.55;0.50;;;19.10;64.80;;;;;;4992109;28;20034;-68
2021/12/13 10:32:10;;;;;;;0.55;0.30;;;19.10;64.80;;;;;;4959923;28;20023;-68
2021/12/13 10:34:38;;;;;;;0.55;0.30;;;19.10;64.80;;;;;;4993058;28;20057;-68
2021/12/13 10:37:10;;;;;;;0.60;0.40;;;19.00;64.70;;;;;;4992188;28;20018;-68
2021/12/13 10:39:43;;;;;;;0.70;0.30;;;19.10;64.70;;;;;;4993280;28;20444;-68
2021/12/13 10:42:10;;;;;;;;;;;19.10;64.70;;;;;;4977228;28;20639;-68
2021/12/13 10:44:38;;;;;;;1.58;0.30;;;19.00;64.50;;;;;;4991976;28;20387;-68
2021/12/13 10:47:09;;;;;;;0.68;0.30;;;19.00;64.80;;;;;;4992099;28;20021;-68
2021/12/13 10:49:36;;;;;;;0.82;0.50;;;19.00;64.80;;;;;;4992807;28;20034;-68
2021/12/13 10:52:15;;;;;;;1.58;0.50;;;19.00;64.70;;;;;;4992013;28;20134;-68
2021/12/13 10:54:44;;;;;;;0.28;0.20;;;19.00;64.60;;;;;;4992018;28;20033;-68
2021/12/13 10:57:47;;;;;;;0.52;0.52;;;19.00;64.70;;;;;;4975895;28;20025;-68
2021/12/13 11:00:19;;;;;;;0.30;0.30;;;19.10;64.60;;;;;;4991472;28;20034;-68
2021/12/13 11:02:45;;;;;;;0.43;0.30;;;19.00;64.70;;;;;;5002408;28;20040;-68
2021/12/13 11:05:13;;;;;;;0.40;0.30;;;19.00;64.70;;;;;;5011313;28;20427;-68
2021/12/13 11:07:39;;;;;;;0.43;0.28;;;19.00;64.70;;;;;;5011261;28;20037;-68
2021/12/13 11:10:09;;;;;;;0.82;0.50;;;19.00;64.50;;;;;;4995258;28;20030;-68
2021/12/13 11:12:40;;;;;;;0.57;0.30;;;19.00;64.50;;;;;;5011363;28;20018;-68
2021/12/13 11:15:13;;;;;;;1.25;0.32;;;19.10;64.60;;;;;;4995274;28;20479;-68
2021/12/13 11:17:40;;;;;;;0.93;0.40;;;19.00;64.40;;;;;;5012374;28;20026;-68
2021/12/13 11:20:19;;;;;;;0.40;0.30;;;19.00;64.40;;;;;;5011455;28;20507;-68
2021/12/13 11:22:45;;;;;;;0.20;0.20;;;19.10;64.40;;;;;;5012461;28;20087;-68
2021/12/13 11:25:23;;;;;;;0.57;0.35;;;19.00;64.40;;;;;;5011444;28;20510;-68
2021/12/13 11:27:49;;;;;;;0.80;0.38;;;19.00;64.30;;;;;;5012417;28;20022;-68
2021/12/13 11:30:20;;;;;;;0.32;0.30;;;19.00;64.40;;;;;;5012299;28;20506;-68
2021/12/13 11:32:58;;;;;;;0.33;0.20;;;19.10;64.30;;;;;;5010831;28;20022;-68
2021/12/13 11:35:51;;;;;;;0.43;0.30;;;19.00;64.30;;;;;;5012430;28;20253;-68
2021/12/13 11:38:38;;;;;;;0.52;0.20;;;19.00;64.20;;;;;;5012383;28;20030;-68
2021/12/13 11:41:11;;;;;;;0.43;0.40;;;19.00;64.30;;;;;;5012469;28;20022;-68
2021/12/13 11:44:01;;;;;;;0.40;0.30;;;19.00;64.30;;;;;;5012259;28;20483;-68
2021/12/13 11:46:55;;;;;;;0.30;0.22;;;19.00;64.10;;;;;;5012037;28;20036;-68
2021/12/13 11:49:49;;;;;;;0.82;0.52;;;19.00;64.20;;;;;;5011226;28;20021;-68
2021/12/13 11:52:42;;;;;;;0.63;0.30;;;19.00;64.10;;;;;;5012235;28;20050;-68
2021/12/13 11:55:49;;;;;;;0.50;0.20;;;19.00;64.10;;;;;;5012119;28;20026;-68
2021/12/13 11:58:31;;;;;;;0.20;0.20;;;19.00;64.10;;;;;;4970845;28;20401;-68
2021/12/13 12:01:33;;;;;;;0.40;0.28;;;19.00;64.20;;;;;;4941307;28;20027;-68
2021/12/13 12:04:36;;;;;;;0.40;0.20;;;19.00;64.10;;;;;;4955129;28;20066;-68
2021/12/13 12:07:14;;;;;;;0.68;0.22;;;19.00;64.20;;;;;;4955112;29;20047;-68
2021/12/13 12:10:01;;;;;;;0.55;0.30;;;19.00;64.30;;;;;;4965283;28;20042;-68
2021/12/13 12:12:48;;;;;;;0.38;0.38;;;19.00;64.10;;;;;;4974518;28;20505;-68
2021/12/13 12:15:14;;;;;;;0.35;0.20;;;19.00;64.10;;;;;;4974047;28;20059;-68
2021/12/13 12:17:40;;;;;;;0.65;0.20;;;19.00;64.20;;;;;;4974360;28;20493;-68
2021/12/13 12:20:12;;;;;;;0.28;0.20;;;19.00;64.10;;;;;;4958329;28;20026;-68
2021/12/13 12:22:55;;;;;;;0.40;0.40;;;19.00;64.00;;;;;;4974232;28;20039;-68
2021/12/13 12:25:24;;;;;;;0.20;0.20;;;19.00;63.90;;;;;;4958855;28;20042;-68
2021/12/13 12:27:53;;;;;;;0.50;0.30;;;19.00;64.00;;;;;;4958056;28;20047;-68
2021/12/13 12:30:21;;;;;;;0.30;0.30;;;19.00;64.00;;;;;;4942019;28;20559;-68
2021/12/13 12:32:50;;;;;;;0.30;0.30;;;19.00;63.90;;;;;;4957673;28;20386;-68
2021/12/13 12:35:19;;;;;;;0.20;0.20;;;19.00;64.00;;;;;;4982326;28;20717;-68
2021/12/13 12:38:00;;;;;;;0.30;0.28;;;19.00;63.90;;;;;;4995354;28;20053;-68
2021/12/13 12:40:35;;;;;;;0.40;0.28;;;19.10;63.80;;;;;;4995678;28;20027;-68
2021/12/13 12:43:07;;;;;;;0.65;0.20;;;19.00;63.90;;;;;;4995625;28;20022;-68
2021/12/13 12:45:40;;;;;;;0.30;0.30;;;19.00;63.90;;;;;;4993893;28;20484;-68
2021/12/13 12:48:15;;;;;;;0.20;0.20;;;19.00;63.80;;;;;;4994370;28;20027;-68
2021/12/13 12:50:49;;;;;;;0.50;0.35;;;19.00;63.80;;;;;;4995589;28;20026;-68
2021/12/13 12:53:42;;;;;;;0.43;0.30;;;19.00;63.90;;;;;;4995383;28;20114;-68
2021/12/13 12:56:33;;;;;;;0.20;0.20;;;19.00;63.80;;;;;;4980415;28;20035;-68
2021/12/13 12:59:08;;;;;;;0.45;0.30;;;19.10;63.70;;;;;;4979954;28;20030;-68
2021/12/13 13:01:55;;;;;;;0.50;0.30;;;19.00;63.80;;;;;;4993824;28;20519;-68
2021/12/13 13:04:22;;;;;;;0.10;0.10;;;19.00;63.80;;;;;;4995028;28;20030;-68
2021/12/13 13:07:14;;;;;;;0.20;0.20;;;19.00;63.80;;;;;;4995186;28;20033;-68
2021/12/13 13:10:25;;;;;;;0.52;0.30;;;19.00;63.50;;;;;;5004077;28;20459;-68
2021/12/13 13:13:10;;;;;;;0.43;0.22;;;19.00;64.50;;;;;;4957377;28;20027;-68
2021/12/13 13:15:40;;;;;;;0.30;0.20;;;19.00;63.70;;;;;;4957070;28;20046;-68
2021/12/13 13:18:09;;;;;;;0.20;0.20;;;19.00;63.80;;;;;;4957780;28;20109;-68
2021/12/13 13:20:42;;;;;;;0.20;0.20;;;19.00;63.70;;;;;;4973059;28;20461;-68
2021/12/13 13:23:09;;;;;;;0.20;0.20;;;19.00;63.70;;;;;;4957273;28;20023;-68
2021/12/13 13:25:46;;;;;;;0.15;0.15;;;19.00;63.70;;;;;;4973082;28;20501;-68
2021/12/13 13:28:42;;;;;;;0.20;0.20;;;19.00;63.60;;;;;;4957024;28;20034;-68
2021/12/13 13:31:13;;;;;;;0.20;0.20;;;19.10;63.50;;;;;;4958367;28;20031;-68
2021/12/13 13:33:46;;;;;;;0.40;0.40;;;19.00;63.60;;;;;;4956549;28;20038;-68
2021/12/13 13:36:24;;;;;;;0.20;0.20;;;19.00;63.50;;;;;;4957223;28;20047;-68